Time;durP1;ratioP1;P1;durP2;ratioP2;P2;SDS_P1;SDS_P2;PMS_P1;PMS_P2;Temp;Humidity;BMP_temperature;BMP_pressure;BME280_temperature;BME280_humidity;BME280_pressure;Samples;Min_cycle;Max_cycle;Signal;HPM_P1;HPM_P2
2023/10/28 00:01:14;;;;;;;8.40;4.60;;;20.40;68.80;;;;;;5010025;28;20025;-58
2023/10/28 00:03:41;;;;;;;10.93;4.85;;;20.40;68.70;;;;;;5007943;28;20041;-58
2023/10/28 00:06:07;;;;;;;10.27;4.60;;;20.40;68.70;;;;;;5012030;28;20069;-57
2023/10/28 00:08:34;;;;;;;11.50;4.47;;;20.40;68.70;;;;;;4994617;28;20044;-57
2023/10/28 00:11:00;;;;;;;10.65;4.93;;;20.40;68.60;;;;;;5011806;28;20120;-60
2023/10/28 00:13:26;;;;;;;8.50;4.47;;;20.40;68.60;;;;;;4995729;28;20030;-59
2023/10/28 00:15:52;;;;;;;14.55;4.65;;;20.40;68.60;;;;;;5037252;22;20018;-51
2023/10/28 00:18:18;;;;;;;10.25;4.40;;;20.40;68.60;;;;;;5051651;28;20051;-48
2023/10/28 00:20:45;;;;;;;8.13;4.38;;;20.40;68.50;;;;;;5052780;28;20017;-51
2023/10/28 00:23:13;;;;;;;9.75;3.92;;;20.40;68.50;;;;;;5049479;28;20020;-52
2023/10/28 00:25:40;;;;;;;7.47;4.53;;;20.40;68.50;;;;;;5052712;28;20108;-46
2023/10/28 00:28:06;;;;;;;7.72;4.40;;;20.40;68.50;;;;;;5049650;28;20028;-54
2023/10/28 00:30:31;;;;;;;10.25;4.97;;;20.40;68.40;;;;;;5047842;28;20106;-54
2023/10/28 00:32:58;;;;;;;7.82;4.35;;;20.40;68.50;;;;;;5032890;28;20045;-54
2023/10/28 00:35:25;;;;;;;7.78;4.50;;;20.30;68.40;;;;;;5031328;28;20033;-55
2023/10/28 00:37:50;;;;;;;9.75;4.15;;;20.30;68.40;;;;;;5032258;28;20428;-52
2023/10/28 00:40:17;;;;;;;11.43;4.13;;;20.40;68.40;;;;;;5032378;28;20054;-49
2023/10/28 00:42:45;;;;;;;7.55;4.00;;;20.30;68.40;;;;;;5028806;28;20093;-53
2023/10/28 00:45:13;;;;;;;9.43;4.28;;;20.30;68.30;;;;;;5031101;28;20025;-52
2023/10/28 00:47:42;;;;;;;7.13;4.03;;;20.30;68.20;;;;;;5032434;28;20293;-56
2023/10/28 00:50:10;;;;;;;7.47;4.22;;;20.30;68.30;;;;;;5031573;28;20029;-55
2023/10/28 00:52:48;;;;;;;9.52;4.10;;;20.30;68.30;;;;;;5033125;28;20025;-55
2023/10/28 00:55:16;;;;;;;9.57;3.85;;;20.30;68.20;;;;;;5032170;28;20067;-54
2023/10/28 00:57:43;;;;;;;11.57;4.53;;;20.30;68.20;;;;;;5039773;28;20021;-54
2023/10/28 01:00:12;;;;;;;9.07;4.93;;;20.30;68.20;;;;;;5049654;28;20070;-50
2023/10/28 01:02:40;;;;;;;9.85;6.00;;;20.30;66.30;;;;;;5031828;28;20032;-55
2023/10/28 01:05:11;;;;;;;10.20;5.97;;;20.10;64.40;;;;;;5031104;28;20027;-53
2023/10/28 01:07:44;;;;;;;9.05;5.80;;;20.00;63.90;;;;;;5030944;28;20492;-51
2023/10/28 01:10:10;;;;;;;10.68;5.72;;;19.90;62.70;;;;;;5032571;28;20129;-55
2023/10/28 01:12:37;;;;;;;7.90;4.47;;;20.00;63.40;;;;;;5032104;28;20056;-53
2023/10/28 01:15:04;;;;;;;10.57;4.65;;;20.00;64.00;;;;;;5030482;28;20029;-52
2023/10/28 01:17:31;;;;;;;12.73;5.00;;;20.00;64.20;;;;;;5030564;28;20022;-53
2023/10/28 01:19:57;;;;;;;7.70;4.22;;;20.10;64.70;;;;;;5029977;28;20033;-53
2023/10/28 01:22:24;;;;;;;7.68;4.10;;;20.10;65.10;;;;;;5033741;28;20021;-55
2023/10/28 01:24:53;;;;;;;9.23;4.82;;;20.10;65.30;;;;;;5031673;28;20044;-55
2023/10/28 01:27:19;;;;;;;7.85;4.28;;;20.10;65.30;;;;;;5031333;28;20038;-46
2023/10/28 01:29:49;;;;;;;10.70;3.88;;;20.10;65.50;;;;;;5047384;28;20025;-49
2023/10/28 01:32:14;;;;;;;6.55;4.25;;;20.10;65.50;;;;;;5039245;28;20111;-52
2023/10/28 01:34:52;;;;;;;6.53;4.07;;;20.10;65.90;;;;;;5031274;28;20472;-55
2023/10/28 01:37:20;;;;;;;10.90;3.95;;;20.20;66.00;;;;;;5030608;28;20025;-54
2023/10/28 01:39:50;;;;;;;5.28;3.60;;;20.20;65.90;;;;;;5011613;28;20033;-54
2023/10/28 01:42:16;;;;;;;6.45;3.80;;;20.20;65.90;;;;;;5030119;28;20026;-49
2023/10/28 01:44:42;;;;;;;7.15;3.38;;;20.20;66.40;;;;;;5031522;28;20030;-54
2023/10/28 01:47:08;;;;;;;6.45;3.80;;;20.20;66.30;;;;;;5029948;28;20505;-54
2023/10/28 01:49:35;;;;;;;10.85;3.78;;;20.20;66.40;;;;;;5030329;28;20041;-50
2023/10/28 01:52:03;;;;;;;11.23;3.97;;;20.20;66.50;;;;;;5031380;28;20448;-55
2023/10/28 01:54:30;;;;;;;6.40;3.70;;;20.20;66.10;;;;;;5031328;28;20037;-55
2023/10/28 01:56:57;;;;;;;10.32;3.47;;;20.20;66.00;;;;;;5030583;28;20022;-53
2023/10/28 01:59:27;;;;;;;9.98;3.90;;;20.20;66.10;;;;;;5022009;28;20040;-52
2023/10/28 02:01:53;;;;;;;6.85;3.40;;;20.20;66.80;;;;;;5034088;28;20554;-53
2023/10/28 02:04:19;;;;;;;8.40;3.65;;;20.20;66.30;;;;;;5029650;28;20516;-50
2023/10/28 02:06:45;;;;;;;6.93;3.53;;;20.20;66.70;;;;;;5030982;28;20024;-51
2023/10/28 02:09:11;;;;;;;5.93;3.33;;;20.20;66.70;;;;;;5031965;28;20038;-53
2023/10/28 02:11:40;;;;;;;5.68;3.38;;;20.20;66.40;;;;;;5030625;28;20493;-55
2023/10/28 02:14:09;;;;;;;8.90;3.70;;;20.20;66.50;;;;;;5031258;28;20053;-55
2023/10/28 02:16:38;;;;;;;7.82;3.40;;;20.20;66.60;;;;;;5028736;28;20022;-55
2023/10/28 02:19:05;;;;;;;7.35;3.30;;;20.20;66.30;;;;;;5030779;28;20063;-56
2023/10/28 02:21:31;;;;;;;6.75;3.50;;;20.20;66.50;;;;;;5029612;28;20030;-52
2023/10/28 02:23:57;;;;;;;5.75;2.85;;;20.10;66.40;;;;;;5031080;28;20021;-55
2023/10/28 02:26:23;;;;;;;5.45;3.25;;;20.20;66.40;;;;;;5028120;28;20513;-54
2023/10/28 02:28:49;;;;;;;4.93;2.80;;;20.20;66.40;;;;;;5027164;28;20037;-50
2023/10/28 02:31:17;;;;;;;8.63;2.80;;;20.20;66.40;;;;;;5033742;28;20109;-54
2023/10/28 02:33:43;;;;;;;6.47;3.00;;;20.20;66.30;;;;;;5047004;28;20112;-54
2023/10/28 02:36:10;;;;;;;3.88;2.85;;;20.20;66.60;;;;;;5029037;28;20030;-54
2023/10/28 02:38:35;;;;;;;4.95;3.17;;;20.20;66.30;;;;;;5029435;28;20026;-51
2023/10/28 02:41:04;;;;;;;4.80;2.85;;;20.20;66.40;;;;;;5030454;28;20504;-51
2023/10/28 02:43:30;;;;;;;8.77;3.33;;;20.20;66.50;;;;;;5029300;28;20079;-54
2023/10/28 02:45:56;;;;;;;4.15;2.85;;;20.20;67.30;;;;;;5029973;28;20025;-54
2023/10/28 02:48:22;;;;;;;5.53;2.83;;;20.20;66.60;;;;;;5029116;28;20072;-55
2023/10/28 02:50:47;;;;;;;7.72;3.22;;;20.20;66.50;;;;;;5030364;28;20228;-53
2023/10/28 02:53:13;;;;;;;8.55;3.30;;;20.20;66.60;;;;;;5030251;28;20056;-50
2023/10/28 02:55:39;;;;;;;5.40;2.80;;;20.20;66.50;;;;;;5030207;28;20171;-52
2023/10/28 02:58:05;;;;;;;7.05;3.30;;;20.10;66.60;;;;;;5030677;28;20101;-52
2023/10/28 03:00:31;;;;;;;7.03;3.10;;;20.20;66.60;;;;;;5031672;28;20021;-55
2023/10/28 03:02:57;;;;;;;5.40;2.38;;;20.20;66.60;;;;;;5049515;28;20477;-54
2023/10/28 03:05:24;;;;;;;5.07;2.78;;;20.20;66.60;;;;;;5031424;28;20104;-51
2023/10/28 03:07:50;;;;;;;6.15;2.60;;;20.10;66.60;;;;;;5030407;28;20029;-55
2023/10/28 03:10:16;;;;;;;4.78;2.65;;;20.20;66.70;;;;;;5029658;28;20088;-55
2023/10/28 03:12:42;;;;;;;4.47;2.60;;;20.20;66.70;;;;;;5030390;28;20033;-55
2023/10/28 03:15:10;;;;;;;4.10;2.65;;;20.10;66.60;;;;;;5029088;28;20018;-54
2023/10/28 03:17:39;;;;;;;3.55;2.63;;;20.20;66.70;;;;;;5029419;28;20459;-54
2023/10/28 03:20:10;;;;;;;6.78;2.63;;;20.10;66.60;;;;;;5030419;28;20022;-55
2023/10/28 03:22:37;;;;;;;7.45;2.88;;;20.10;66.70;;;;;;5029961;28;20037;-55
2023/10/28 03:25:03;;;;;;;4.25;2.58;;;20.20;66.70;;;;;;5030747;28;20018;-55
2023/10/28 03:27:30;;;;;;;8.27;2.83;;;20.20;66.70;;;;;;5029309;28;20033;-54
2023/10/28 03:29:56;;;;;;;5.00;2.65;;;20.10;66.80;;;;;;5030189;28;20033;-55
2023/10/28 03:32:22;;;;;;;4.50;2.40;;;20.10;66.70;;;;;;5049498;28;20137;-54
2023/10/28 03:34:48;;;;;;;7.55;2.78;;;20.10;66.70;;;;;;5049884;28;20057;-54
2023/10/28 03:37:14;;;;;;;7.78;2.28;;;20.10;66.70;;;;;;5031759;28;20036;-51
2023/10/28 03:39:39;;;;;;;8.43;2.70;;;20.10;66.70;;;;;;5030331;28;20083;-48
2023/10/28 03:42:08;;;;;;;4.47;2.45;;;20.10;66.70;;;;;;5030031;28;20025;-50
2023/10/28 03:44:34;;;;;;;5.83;2.40;;;20.10;66.70;;;;;;5029491;28;20486;-47
2023/10/28 03:47:00;;;;;;;4.28;2.40;;;20.10;66.70;;;;;;5029917;28;20164;-47
2023/10/28 03:49:27;;;;;;;4.28;2.35;;;20.10;66.80;;;;;;5030057;28;20112;-48
2023/10/28 03:51:53;;;;;;;4.57;2.53;;;20.10;66.70;;;;;;5030017;28;20095;-48
2023/10/28 03:54:18;;;;;;;3.80;2.15;;;20.10;66.70;;;;;;5030016;28;20022;-54
2023/10/28 03:56:44;;;;;;;5.78;2.35;;;20.10;66.70;;;;;;5028589;28;20044;-54
2023/10/28 03:59:10;;;;;;;6.38;2.20;;;20.20;67.40;;;;;;5031079;28;20033;-54
2023/10/28 04:01:36;;;;;;;4.75;2.40;;;20.10;66.80;;;;;;5033578;28;20028;-54
2023/10/28 04:04:02;;;;;;;2.65;1.98;;;20.10;66.70;;;;;;5033479;28;20020;-55
2023/10/28 04:06:28;;;;;;;3.35;2.40;;;20.10;66.70;;;;;;5033017;28;20037;-54
2023/10/28 04:08:55;;;;;;;3.53;2.42;;;20.10;66.90;;;;;;5034558;28;20105;-53
2023/10/28 04:11:21;;;;;;;3.58;2.50;;;20.10;66.80;;;;;;5032717;28;20029;-55
2023/10/28 04:13:48;;;;;;;2.40;1.90;;;20.10;66.80;;;;;;5034119;28;20116;-54
2023/10/28 04:16:14;;;;;;;4.97;2.53;;;20.10;66.80;;;;;;5033019;28;20025;-55
2023/10/28 04:18:39;;;;;;;5.13;2.28;;;20.10;66.80;;;;;;5033973;28;20036;-54
2023/10/28 04:21:05;;;;;;;3.80;2.17;;;20.10;66.90;;;;;;5033185;28;20444;-54
2023/10/28 04:23:31;;;;;;;6.13;2.75;;;20.10;66.80;;;;;;5032847;28;20037;-54
2023/10/28 04:25:57;;;;;;;4.65;2.42;;;20.10;66.90;;;;;;5032655;28;20500;-55
2023/10/28 04:28:23;;;;;;;2.80;2.10;;;20.10;66.90;;;;;;5033202;28;20068;-53
2023/10/28 04:30:59;;;;;;;4.22;2.35;;;20.10;66.80;;;;;;5033026;28;20031;-55
2023/10/28 04:33:25;;;;;;;3.08;2.17;;;20.10;66.80;;;;;;5033117;28;20029;-54
2023/10/28 04:35:52;;;;;;;4.82;2.20;;;20.10;66.80;;;;;;5032461;28;20535;-54
2023/10/28 04:38:19;;;;;;;2.85;2.25;;;20.10;66.70;;;;;;5033966;28;20032;-55
2023/10/28 04:40:45;;;;;;;4.20;2.20;;;20.10;66.70;;;;;;5031712;28;20048;-52
2023/10/28 04:43:11;;;;;;;5.40;2.40;;;20.20;66.70;;;;;;5032535;28;20024;-54
2023/10/28 04:45:43;;;;;;;3.15;2.10;;;20.10;66.60;;;;;;5033074;28;20018;-55
2023/10/28 04:48:15;;;;;;;3.75;2.47;;;20.20;66.70;;;;;;5032635;28;20100;-55
2023/10/28 04:50:41;;;;;;;4.28;2.60;;;20.20;66.70;;;;;;5032346;28;20026;-55
2023/10/28 04:53:10;;;;;;;4.25;2.63;;;20.20;66.80;;;;;;5032756;28;20017;-55
2023/10/28 04:55:36;;;;;;;5.13;2.63;;;20.20;66.60;;;;;;5032906;28;20109;-54
2023/10/28 04:58:02;;;;;;;4.30;2.38;;;20.20;66.50;;;;;;5031086;28;20135;-54
2023/10/28 05:00:28;;;;;;;3.65;2.50;;;20.20;66.60;;;;;;5037375;28;20429;-54
2023/10/28 05:02:54;;;;;;;4.40;2.30;;;20.20;66.50;;;;;;5049552;28;20496;-55
2023/10/28 05:05:20;;;;;;;6.30;2.75;;;20.20;66.50;;;;;;5032750;28;20045;-55
2023/10/28 05:07:46;;;;;;;4.60;2.70;;;20.20;66.40;;;;;;5031704;28;20029;-55
2023/10/28 05:10:11;;;;;;;8.93;2.97;;;20.20;66.60;;;;;;5032064;28;20027;-55
2023/10/28 05:12:39;;;;;;;4.13;2.70;;;20.20;66.40;;;;;;5032067;28;20485;-55
2023/10/28 05:15:06;;;;;;;3.22;2.40;;;20.20;66.60;;;;;;5030539;28;20033;-54
2023/10/28 05:17:32;;;;;;;7.07;3.05;;;20.20;66.60;;;;;;5030812;28;20099;-54
2023/10/28 05:19:58;;;;;;;4.63;2.78;;;20.20;66.50;;;;;;5031990;28;20026;-52
2023/10/28 05:22:24;;;;;;;4.57;2.55;;;20.20;66.70;;;;;;5031650;28;20025;-56
2023/10/28 05:24:52;;;;;;;4.57;2.42;;;20.20;66.80;;;;;;5032960;28;20033;-50
2023/10/28 05:27:18;;;;;;;5.30;2.88;;;20.20;66.70;;;;;;5030819;28;20077;-51
2023/10/28 05:29:44;;;;;;;4.65;2.85;;;20.20;66.90;;;;;;5028417;28;20448;-47
2023/10/28 05:32:10;;;;;;;5.78;2.88;;;20.20;66.90;;;;;;5047382;28;20025;-52
2023/10/28 05:34:36;;;;;;;4.00;2.85;;;20.20;66.90;;;;;;5050058;28;20120;-51
2023/10/28 05:37:02;;;;;;;4.10;2.60;;;20.20;67.00;;;;;;5031500;28;20117;-54
2023/10/28 05:39:28;;;;;;;4.28;2.80;;;20.20;67.00;;;;;;5032513;28;20040;-54
2023/10/28 05:41:54;;;;;;;9.02;3.05;;;20.20;67.10;;;;;;5031807;28;20021;-54
2023/10/28 05:44:20;;;;;;;6.45;3.22;;;20.20;67.00;;;;;;5031635;28;20032;-54
2023/10/28 05:46:45;;;;;;;7.07;2.95;;;20.20;67.10;;;;;;5030444;28;20037;-53
2023/10/28 05:49:12;;;;;;;4.68;2.50;;;20.20;67.10;;;;;;5031591;28;20025;-54
2023/10/28 05:51:39;;;;;;;6.30;2.92;;;20.20;67.00;;;;;;5031684;28;20025;-52
2023/10/28 05:54:05;;;;;;;3.92;2.60;;;20.20;66.90;;;;;;5031141;28;20500;-53
2023/10/28 05:56:30;;;;;;;5.10;2.92;;;20.20;67.00;;;;;;5031046;28;20036;-53
2023/10/28 05:58:58;;;;;;;5.30;3.00;;;20.20;67.10;;;;;;5031390;28;20443;-48
2023/10/28 06:01:27;;;;;;;6.28;2.83;;;20.20;67.00;;;;;;5030961;28;20030;-53
2023/10/28 06:03:53;;;;;;;5.28;2.80;;;20.20;67.00;;;;;;5036844;28;20423;-52
2023/10/28 06:06:18;;;;;;;7.03;3.20;;;20.20;67.00;;;;;;5035500;28;20033;-46
2023/10/28 06:08:44;;;;;;;4.95;2.75;;;20.10;66.90;;;;;;5031365;28;20445;-53
2023/10/28 06:11:10;;;;;;;7.32;3.20;;;20.20;67.00;;;;;;5031375;28;20022;-53
2023/10/28 06:13:36;;;;;;;5.45;2.90;;;20.20;67.00;;;;;;5030815;28;20036;-55
2023/10/28 06:16:02;;;;;;;5.18;2.97;;;20.20;67.10;;;;;;5029805;28;20022;-48
2023/10/28 06:18:29;;;;;;;6.43;2.88;;;20.20;66.70;;;;;;5087697;23;20042;-59
2023/10/28 06:20:55;;;;;;;5.43;3.05;;;20.20;67.10;;;;;;5067107;28;20481;-59
2023/10/28 06:23:21;;;;;;;6.65;2.92;;;20.20;66.90;;;;;;5056184;28;20104;-57
2023/10/28 06:25:47;;;;;;;4.72;2.90;;;20.20;66.80;;;;;;5051904;28;20559;-59
2023/10/28 06:28:13;;;;;;;4.32;2.92;;;20.20;66.90;;;;;;5053057;28;20017;-58
2023/10/28 06:30:49;;;;;;;12.15;3.15;;;20.20;66.80;;;;;;5054186;28;20118;-55
2023/10/28 06:33:16;;;;;;;9.75;2.83;;;20.30;67.70;;;;;;5045175;28;20583;-57
2023/10/28 06:35:42;;;;;;;7.45;3.00;;;20.40;67.90;;;;;;5049113;28;20059;-57
2023/10/28 06:38:08;;;;;;;5.13;2.75;;;20.30;66.90;;;;;;5053887;28;20029;-56
2023/10/28 06:40:37;;;;;;;4.95;2.67;;;20.30;67.10;;;;;;5045273;28;20029;-57
2023/10/28 06:43:04;;;;;;;6.85;3.13;;;20.30;67.00;;;;;;5051481;28;20127;-58
2023/10/28 06:45:30;;;;;;;7.32;2.95;;;20.30;67.10;;;;;;5041747;28;20500;-57
2023/10/28 06:47:56;;;;;;;4.68;2.88;;;20.30;67.10;;;;;;5051187;28;20040;-57
2023/10/28 06:50:21;;;;;;;5.25;3.20;;;20.30;67.20;;;;;;5050266;28;20033;-58
2023/10/28 06:52:48;;;;;;;9.48;2.95;;;20.30;67.20;;;;;;5048087;28;20105;-58
2023/10/28 06:55:14;;;;;;;12.60;3.22;;;20.30;67.70;;;;;;5046000;28;20048;-56
2023/10/28 06:57:41;;;;;;;12.88;2.97;;;20.30;67.50;;;;;;5051102;28;20029;-59
2023/10/28 07:00:13;;;;;;;10.05;3.10;;;20.30;68.20;;;;;;5051184;28;20108;-58
2023/10/28 07:02:40;;;;;;;28.60;3.97;;;20.30;68.00;;;;;;5047589;28;20039;-59
2023/10/28 07:05:08;;;;;;;16.40;3.38;;;20.30;67.60;;;;;;5036116;28;20040;-59
2023/10/28 07:07:35;;;;;;;11.15;3.40;;;20.30;67.00;;;;;;5049438;28;20033;-59
2023/10/28 07:10:01;;;;;;;11.13;3.35;;;20.20;66.80;;;;;;5031235;28;20523;-58
2023/10/28 07:12:28;;;;;;;7.53;2.80;;;20.20;66.40;;;;;;5031225;28;20464;-59
2023/10/28 07:14:55;;;;;;;16.98;2.92;;;20.20;66.20;;;;;;5030994;28;20029;-59
2023/10/28 07:17:22;;;;;;;6.07;3.20;;;20.10;65.90;;;;;;5030545;28;20037;-59
2023/10/28 07:19:54;;;;;;;8.65;3.30;;;20.10;65.60;;;;;;5031208;28;20026;-59
2023/10/28 07:22:21;;;;;;;6.70;3.60;;;20.10;65.60;;;;;;5031196;28;20397;-59
2023/10/28 07:24:47;;;;;;;7.45;3.20;;;20.10;66.20;;;;;;5031130;28;20036;-59
2023/10/28 07:27:13;;;;;;;7.32;2.92;;;20.10;65.60;;;;;;5030830;28;20025;-59
2023/10/28 07:29:39;;;;;;;5.47;3.08;;;20.10;65.90;;;;;;5031156;28;20032;-57
2023/10/28 07:32:09;;;;;;;4.32;3.00;;;20.10;65.70;;;;;;5031285;28;20112;-59
2023/10/28 07:34:35;;;;;;;;;;;20.20;65.40;;;;;;5032612;28;20382;-59
2023/10/28 07:37:03;;;;;;;5.45;2.80;;;20.10;64.80;;;;;;5034043;28;19913;-59
2023/10/28 07:39:29;;;;;;;7.22;2.92;;;20.10;64.70;;;;;;5034715;28;20053;-59
2023/10/28 07:41:56;;;;;;;8.10;3.15;;;20.10;64.60;;;;;;5034685;28;20393;-60
2023/10/28 07:44:22;;;;;;;4.45;2.50;;;20.10;65.30;;;;;;5034668;28;20021;-59
2023/10/28 07:46:48;;;;;;;4.93;3.20;;;20.10;64.80;;;;;;5034291;28;20516;-59
2023/10/28 07:49:14;;;;;;;4.57;3.08;;;20.10;64.60;;;;;;5034650;28;20152;-59
2023/10/28 07:51:39;;;;;;;7.85;2.83;;;20.10;64.90;;;;;;5034543;28;20045;-59
2023/10/28 07:54:06;;;;;;;12.23;3.28;;;20.10;64.50;;;;;;5034585;28;20032;-56
2023/10/28 07:56:33;;;;;;;5.85;3.10;;;20.10;64.30;;;;;;5034087;28;20142;-59
2023/10/28 07:59:02;;;;;;;6.55;3.08;;;20.10;64.80;;;;;;5046096;28;20021;-59
2023/10/28 08:01:29;;;;;;;11.65;4.10;;;20.00;62.50;;;;;;5050153;28;20086;-54
2023/10/28 08:03:56;;;;;;;8.05;4.10;;;19.90;61.00;;;;;;5048000;28;20451;-59
2023/10/28 08:06:23;;;;;;;8.40;3.67;;;19.80;60.70;;;;;;5053180;28;20132;-59
2023/10/28 08:08:48;;;;;;;7.13;3.83;;;19.80;60.50;;;;;;5053676;28;20033;-59
2023/10/28 08:11:16;;;;;;;5.97;4.43;;;19.80;60.00;;;;;;5054326;28;20028;-59
2023/10/28 08:13:42;;;;;;;6.15;4.38;;;19.80;61.10;;;;;;5035522;28;20072;-58
2023/10/28 08:16:12;;;;;;;8.80;4.28;;;19.80;61.30;;;;;;5035129;28;20021;-59
2023/10/28 08:18:40;;;;;;;8.32;5.32;;;19.90;63.10;;;;;;5039620;28;20029;-60
2023/10/28 08:21:07;;;;;;;9.15;4.25;;;20.00;64.70;;;;;;5038702;28;20022;-59
2023/10/28 08:23:33;;;;;;;11.07;4.43;;;20.10;62.70;;;;;;5039187;28;20021;-60
2023/10/28 08:25:59;;;;;;;17.25;4.85;;;20.10;63.60;;;;;;5040605;28;21674;-60
2023/10/28 08:28:28;;;;;;;8.63;4.18;;;20.20;63.10;;;;;;5041193;28;20029;-56
2023/10/28 08:30:54;;;;;;;13.30;4.53;;;20.20;63.30;;;;;;5041782;28;20028;-58
2023/10/28 08:33:20;;;;;;;14.15;4.10;;;20.20;63.20;;;;;;5035341;28;20037;-58
2023/10/28 08:35:50;;;;;;;23.83;4.40;;;20.20;63.80;;;;;;5043610;28;20464;-59
2023/10/28 08:38:18;;;;;;;14.02;4.15;;;20.20;63.40;;;;;;5037941;28;20013;-58
2023/10/28 08:40:46;;;;;;;8.98;4.50;;;20.20;63.80;;;;;;5036546;28;20072;-57
2023/10/28 08:43:14;;;;;;;12.35;4.10;;;20.20;63.30;;;;;;5041192;28;20024;-57
2023/10/28 08:45:42;;;;;;;12.30;4.68;;;20.20;63.60;;;;;;5034191;28;20037;-53
2023/10/28 08:48:10;;;;;;;9.13;4.25;;;20.20;63.20;;;;;;5027057;28;20092;-56
2023/10/28 08:50:39;;;;;;;11.90;4.53;;;20.20;63.60;;;;;;5040041;28;20021;-57
2023/10/28 08:53:08;;;;;;;11.73;4.95;;;20.20;63.60;;;;;;5032449;28;20067;-54
2023/10/28 08:55:39;;;;;;;12.68;4.60;;;20.20;63.50;;;;;;5041692;28;20098;-58
2023/10/28 08:58:06;;;;;;;8.98;4.78;;;20.20;63.60;;;;;;5039630;28;20053;-58
2023/10/28 09:00:35;;;;;;;12.38;4.03;;;20.20;63.80;;;;;;5037457;28;20079;-53
2023/10/28 09:03:04;;;;;;;10.15;4.50;;;20.20;63.80;;;;;;5036560;28;20021;-55
2023/10/28 09:05:30;;;;;;;13.77;4.53;;;20.20;63.80;;;;;;5039369;28;20033;-55
2023/10/28 09:07:56;;;;;;;11.93;4.70;;;20.10;63.80;;;;;;5037402;28;20025;-57
2023/10/28 09:10:22;;;;;;;9.25;4.53;;;20.20;63.90;;;;;;5035542;28;20056;-57
2023/10/28 09:12:50;;;;;;;8.32;3.63;;;20.20;64.10;;;;;;5036207;28;20048;-58
2023/10/28 09:15:17;;;;;;;16.92;5.38;;;20.20;64.10;;;;;;5032577;28;20030;-59
2023/10/28 09:17:43;;;;;;;13.63;5.13;;;20.20;64.60;;;;;;5040411;28;20094;-59
2023/10/28 09:20:12;;;;;;;12.32;4.90;;;20.20;64.40;;;;;;5041907;28;20045;-56
2023/10/28 09:22:42;;;;;;;13.27;5.00;;;20.20;64.40;;;;;;5038488;28;20513;-59
2023/10/28 09:25:10;;;;;;;9.65;4.10;;;20.20;64.50;;;;;;5033005;28;20068;-55
2023/10/28 09:27:36;;;;;;;8.25;4.32;;;20.10;64.60;;;;;;5034663;28;20032;-57
2023/10/28 09:30:10;;;;;;;8.10;4.63;;;20.20;64.70;;;;;;5040900;28;20034;-59
2023/10/28 09:32:38;;;;;;;11.07;4.45;;;20.20;64.60;;;;;;5037507;28;20037;-58
2023/10/28 09:35:08;;;;;;;15.95;4.70;;;20.20;64.80;;;;;;5035292;28;20396;-58
2023/10/28 09:37:38;;;;;;;13.07;4.60;;;20.20;64.80;;;;;;5034719;28;20112;-58
2023/10/28 09:40:10;;;;;;;7.35;4.00;;;20.20;65.00;;;;;;5037579;28;20017;-54
2023/10/28 09:42:37;;;;;;;10.57;4.47;;;20.20;65.10;;;;;;5034240;28;20112;-58
2023/10/28 09:45:06;;;;;;;10.52;4.55;;;20.30;65.10;;;;;;5043440;28;20024;-55
2023/10/28 09:47:40;;;;;;;7.55;4.55;;;20.30;65.00;;;;;;5036637;28;20055;-57
2023/10/28 09:50:11;;;;;;;8.25;3.70;;;20.20;65.00;;;;;;5036427;28;20032;-56
2023/10/28 09:52:41;;;;;;;7.85;4.22;;;20.30;65.10;;;;;;5035026;28;20033;-52
2023/10/28 09:55:11;;;;;;;9.05;4.30;;;20.30;65.20;;;;;;5036491;28;20025;-56
2023/10/28 09:57:39;;;;;;;7.10;4.38;;;20.30;65.10;;;;;;5010617;28;20124;-56
2023/10/28 10:00:17;;;;;;;8.27;4.38;;;20.20;65.20;;;;;;5038200;28;20104;-56
2023/10/28 10:03:12;;;;;;;8.40;4.20;;;20.30;65.30;;;;;;5037099;28;20018;-57
2023/10/28 10:05:42;;;;;;;14.60;3.95;;;20.30;65.30;;;;;;5042275;28;20040;-59
2023/10/28 10:08:22;;;;;;;8.88;4.28;;;20.30;65.40;;;;;;5035473;28;20026;-55
2023/10/28 10:10:49;;;;;;;11.95;3.92;;;20.30;65.30;;;;;;5040189;28;20068;-56
2023/10/28 10:13:15;;;;;;;6.43;3.83;;;20.30;65.40;;;;;;5035119;28;20029;-53
2023/10/28 10:16:03;;;;;;;9.70;4.45;;;20.30;65.30;;;;;;5036373;28;20025;-54
2023/10/28 10:18:40;;;;;;;8.85;4.13;;;20.30;65.20;;;;;;5036111;28;20032;-53
2023/10/28 10:21:09;;;;;;;12.60;4.18;;;20.30;65.50;;;;;;5044388;28;20098;-55
2023/10/28 10:23:45;;;;;;;7.13;4.10;;;20.40;65.50;;;;;;5037789;28;20033;-55
2023/10/28 10:26:34;;;;;;;7.65;3.70;;;20.30;65.50;;;;;;5034598;28;20032;-57
2023/10/28 10:29:05;;;;;;;9.23;4.07;;;20.40;65.50;;;;;;5037949;28;20044;-53
2023/10/28 10:31:33;;;;;;;13.88;3.90;;;20.30;65.40;;;;;;5036032;28;20310;-56
2023/10/28 10:34:09;;;;;;;6.22;3.83;;;20.30;65.50;;;;;;5034090;28;20021;-53
2023/10/28 10:36:40;;;;;;;7.00;3.55;;;20.30;65.60;;;;;;5037318;28;20453;-57
2023/10/28 10:39:11;;;;;;;12.55;3.78;;;20.40;65.50;;;;;;5038276;28;20027;-56
2023/10/28 10:41:39;;;;;;;8.90;3.88;;;20.40;65.40;;;;;;5039799;28;20038;-56
2023/10/28 10:44:40;;;;;;;15.00;3.92;;;20.40;65.40;;;;;;5032972;28;20026;-56
2023/10/28 10:47:09;;;;;;;7.10;3.58;;;20.40;65.50;;;;;;4933898;29;20046;-55
2023/10/28 10:49:38;;;;;;;11.40;4.03;;;20.40;65.50;;;;;;4931333;29;20197;-54
2023/10/28 10:52:05;;;;;;;6.55;3.30;;;20.40;65.50;;;;;;4912977;29;20071;-55
2023/10/28 10:54:36;;;;;;;7.15;4.00;;;20.40;65.50;;;;;;4928513;29;20363;-51
2023/10/28 10:57:03;;;;;;;8.00;3.65;;;20.40;65.50;;;;;;4934635;29;20431;-52
2023/10/28 10:59:32;;;;;;;10.98;4.05;;;20.40;65.50;;;;;;4933008;29;20031;-56
2023/10/28 11:02:00;;;;;;;7.20;3.78;;;20.40;65.70;;;;;;4928550;29;20036;-57
2023/10/28 11:04:27;;;;;;;7.25;3.60;;;20.40;65.70;;;;;;4929934;29;20032;-51
2023/10/28 11:06:54;;;;;;;9.63;3.83;;;20.40;65.80;;;;;;4931780;29;20102;-56
2023/10/28 11:09:21;;;;;;;7.68;3.85;;;20.40;65.80;;;;;;4930792;29;20080;-54
2023/10/28 11:11:47;;;;;;;6.95;3.78;;;20.30;65.60;;;;;;4939333;29;20116;-56
2023/10/28 11:14:13;;;;;;;7.75;3.42;;;20.30;65.60;;;;;;4933121;29;20043;-58
2023/10/28 11:16:41;;;;;;;6.07;3.55;;;20.30;65.70;;;;;;4931910;29;21045;-57
2023/10/28 11:19:08;;;;;;;10.90;3.78;;;20.30;65.60;;;;;;4932482;29;20019;-58
2023/10/28 11:21:35;;;;;;;8.93;3.60;;;20.30;65.50;;;;;;5001388;28;20037;-53
2023/10/28 11:24:04;;;;;;;15.07;4.28;;;20.30;65.60;;;;;;5039595;28;20489;-53
2023/10/28 11:26:29;;;;;;;12.18;4.20;;;20.30;65.60;;;;;;5037166;28;20052;-53
2023/10/28 11:28:59;;;;;;;8.82;3.67;;;20.30;65.60;;;;;;5045515;28;20029;-55
2023/10/28 11:31:28;;;;;;;6.60;3.25;;;20.30;65.60;;;;;;5037833;28;20124;-57
2023/10/28 11:33:58;;;;;;;7.30;3.80;;;20.30;65.60;;;;;;5027261;28;20036;-55
2023/10/28 11:36:24;;;;;;;6.70;3.70;;;20.30;65.70;;;;;;5038752;28;20037;-55
2023/10/28 11:38:50;;;;;;;10.18;3.60;;;20.30;65.70;;;;;;5036972;28;20456;-53
2023/10/28 11:41:16;;;;;;;6.55;3.60;;;20.30;65.70;;;;;;5036493;28;20388;-53
2023/10/28 11:43:42;;;;;;;11.85;4.10;;;20.30;65.70;;;;;;5038403;28;20021;-55
2023/10/28 11:46:08;;;;;;;5.35;3.50;;;20.30;65.70;;;;;;5029237;28;20029;-54
2023/10/28 11:48:34;;;;;;;7.15;3.90;;;20.30;65.70;;;;;;5035608;28;20034;-53
2023/10/28 11:51:01;;;;;;;7.80;3.67;;;20.30;65.70;;;;;;5038450;28;20479;-56
2023/10/28 11:53:28;;;;;;;6.95;3.45;;;20.30;65.70;;;;;;5033461;28;20088;-51
2023/10/28 11:55:55;;;;;;;8.90;3.70;;;20.30;65.80;;;;;;5028862;28;20142;-54
2023/10/28 11:58:24;;;;;;;8.05;3.65;;;20.30;65.80;;;;;;5036605;28;20104;-54
2023/10/28 12:00:53;;;;;;;8.88;3.85;;;20.30;65.70;;;;;;5025780;28;20064;-56
2023/10/28 12:03:22;;;;;;;6.35;3.70;;;20.30;65.80;;;;;;5040229;28;20112;-53
2023/10/28 12:05:48;;;;;;;12.35;3.63;;;20.30;65.80;;;;;;5041131;28;20108;-54
2023/10/28 12:08:14;;;;;;;6.75;3.63;;;20.30;65.90;;;;;;5034414;28;20109;-54
2023/10/28 12:10:43;;;;;;;8.60;3.83;;;20.30;65.80;;;;;;5037788;28;20463;-52
2023/10/28 12:13:13;;;;;;;10.15;3.60;;;20.30;65.80;;;;;;5036158;28;20488;-55
2023/10/28 12:15:39;;;;;;;7.70;3.47;;;20.30;65.80;;;;;;5043466;28;20028;-53
2023/10/28 12:18:07;;;;;;;13.50;4.00;;;20.30;65.90;;;;;;5044345;28;20455;-58
2023/10/28 12:20:33;;;;;;;8.73;4.13;;;20.30;66.00;;;;;;5036961;28;20029;-54
2023/10/28 12:22:59;;;;;;;15.48;4.32;;;20.30;65.90;;;;;;5035912;28;20051;-54
2023/10/28 12:25:25;;;;;;;8.48;3.95;;;20.30;66.00;;;;;;5037045;28;20124;-54
2023/10/28 12:27:54;;;;;;;8.38;3.92;;;20.30;66.00;;;;;;5035963;28;20025;-55
2023/10/28 12:30:20;;;;;;;7.75;3.72;;;20.30;66.20;;;;;;5027265;28;20404;-55
2023/10/28 12:32:50;;;;;;;8.38;3.85;;;20.30;66.60;;;;;;5037843;28;20116;-53
2023/10/28 12:35:18;;;;;;;;;;;20.30;66.40;;;;;;5036188;28;20244;-55
2023/10/28 12:37:46;;;;;;;12.43;4.45;;;20.40;66.50;;;;;;5035494;28;20069;-51
2023/10/28 12:40:12;;;;;;;12.25;4.45;;;20.40;66.30;;;;;;5036915;28;20118;-58
2023/10/28 12:42:38;;;;;;;8.18;4.28;;;20.40;67.20;;;;;;5033859;28;20037;-55
2023/10/28 12:45:06;;;;;;;10.63;3.65;;;20.30;66.20;;;;;;5038687;28;20044;-56
2023/10/28 12:47:32;;;;;;;8.95;4.07;;;20.30;66.50;;;;;;5037930;28;20469;-57